Time;durP1;ratioP1;P1;durP2;ratioP2;P2;SDS_P1;SDS_P2;PMS_P1;PMS_P2;Temp;Humidity;BMP_temperature;BMP_pressure;BME280_temperature;BME280_humidity;BME280_pressure;Samples;Min_cycle;Max_cycle;Signal;HPM_P1;HPM_P2
2023/04/24 00:03:38;;;;;;;1.20;0.80;;;;;;;13.14;85.35;99173.56;8291591;28;20034;-59
2023/04/24 00:07:40;;;;;;;4.78;1.02;;;;;;;13.16;83.32;99176.94;8293567;28;20501;-59
2023/04/24 00:11:41;;;;;;;1.20;0.88;;;;;;;13.17;83.10;99173.19;8294997;28;20038;-60
2023/04/24 00:15:41;;;;;;;2.00;1.13;;;;;;;13.20;82.09;99172.81;8294946;28;20508;-59
2023/04/24 00:19:41;;;;;;;1.95;1.13;;;;;;;13.20;82.27;99167.38;8293111;28;20045;-60
2023/04/24 00:23:42;;;;;;;1.88;1.05;;;;;;;13.17;82.02;99170.47;8306302;28;20115;-59
2023/04/24 00:27:42;;;;;;;4.35;0.82;;;;;;;13.16;82.12;99172.38;8294280;28;20041;-59
2023/04/24 00:31:43;;;;;;;1.67;1.05;;;;;;;13.13;82.37;99177.31;8293714;28;20062;-59
2023/04/24 00:35:43;;;;;;;1.25;0.98;;;;;;;13.09;82.05;99181.44;8294756;28;20108;-59
2023/04/24 00:39:45;;;;;;;4.03;1.42;;;;;;;13.05;82.75;99178.25;8293798;28;20046;-59
2023/04/24 00:43:46;;;;;;;2.50;1.40;;;;;;;13.04;82.87;99178.44;8264981;28;20041;-59
2023/04/24 00:47:47;;;;;;;1.40;1.20;;;;;;;13.05;81.10;99172.84;8273144;28;20065;-59
2023/04/24 00:51:49;;;;;;;1.42;1.15;;;;;;;13.02;80.61;99185.97;8297216;28;20092;-59
2023/04/24 00:55:50;;;;;;;2.13;1.27;;;;;;;12.89;82.04;99180.31;8294576;28;20420;-59
2023/04/24 00:59:53;;;;;;;2.53;1.17;;;;;;;12.82;81.41;99173.94;8293281;28;20625;-59
2023/04/24 01:03:53;;;;;;;2.63;2.33;;;;;;;12.76;79.70;99191.81;8293613;28;20043;-59
2023/04/24 01:07:54;;;;;;;3.35;2.65;;;;;;;12.63;81.33;99185.38;8293041;28;20112;-59
2023/04/24 01:11:56;;;;;;;5.88;3.78;;;;;;;12.42;79.52;99194.22;8293752;28;20088;-59
2023/04/24 01:15:57;;;;;;;8.20;4.80;;;;;;;12.27;79.81;99189.78;8292653;28;20050;-59
2023/04/24 01:19:59;;;;;;;8.10;4.53;;;;;;;12.12;80.64;99202.44;8292665;28;20439;-59
2023/04/24 01:24:00;;;;;;;6.65;4.80;;;;;;;11.95;81.57;99214.47;8293626;28;20114;-59
2023/04/24 01:28:01;;;;;;;10.38;5.40;;;;;;;11.77;82.48;99210.16;8293279;28;20041;-58
2023/04/24 01:32:02;;;;;;;8.43;5.10;;;;;;;11.62;83.98;99214.66;8292515;28;20507;-59
2023/04/24 01:36:03;;;;;;;8.98;5.25;;;;;;;11.50;84.42;99223.38;8292638;28;20173;-59
2023/04/24 01:40:06;;;;;;;9.60;6.15;;;;;;;11.39;85.47;99227.31;8322352;28;20093;-59
2023/04/24 01:44:07;;;;;;;6.65;5.07;;;;;;;11.28;86.40;99225.00;8292310;28;20046;-59
2023/04/24 01:48:09;;;;;;;6.53;5.10;;;;;;;11.23;85.80;99221.13;8292053;28;20112;-60
2023/04/24 01:52:10;;;;;;;9.18;6.05;;;;;;;11.13;86.91;99215.94;8292297;28;20064;-59
2023/04/24 01:56:11;;;;;;;8.68;6.65;;;;;;;11.00;87.00;99212.94;8292348;28;20078;-59
2023/04/24 02:00:12;;;;;;;9.65;6.60;;;;;;;10.91;87.59;99207.72;8290898;28;20562;-59
2023/04/24 02:04:15;;;;;;;14.43;7.73;;;;;;;10.89;88.17;99207.91;8290922;28;20038;-59
2023/04/24 02:08:16;;;;;;;12.70;7.03;;;;;;;10.98;88.30;99196.03;8306195;28;20183;-59
2023/04/24 02:12:17;;;;;;;9.45;5.88;;;;;;;11.17;86.86;99203.75;8290814;28;20076;-60
2023/04/24 02:16:18;;;;;;;11.77;6.43;;;;;;;11.21;85.74;99180.72;8290987;28;20046;-62
2023/04/24 02:20:18;;;;;;;13.10;7.07;;;;;;;11.19;85.99;99188.16;8291824;28;20096;-62
2023/04/24 02:24:19;;;;;;;9.60;7.05;;;;;;;11.19;86.18;99199.00;8291575;28;20048;-63
2023/04/24 02:28:19;;;;;;;13.13;8.35;;;;;;;11.23;85.31;99203.03;8297740;28;20477;-64
2023/04/24 02:32:20;;;;;;;10.48;7.10;;;;;;;11.34;84.39;99208.03;8289622;28;20408;-64
2023/04/24 02:36:21;;;;;;;16.55;8.27;;;;;;;11.38;84.24;99209.38;8290550;28;20535;-64
2023/04/24 02:40:22;;;;;;;12.55;7.38;;;;;;;11.44;84.83;99224.91;8287766;28;20045;-64
2023/04/24 02:44:23;;;;;;;13.00;7.57;;;;;;;11.41;85.05;99227.97;8288144;28;20041;-65
2023/04/24 02:48:23;;;;;;;11.65;8.15;;;;;;;11.45;84.10;99215.78;8290064;28;20452;-64
2023/04/24 02:52:24;;;;;;;12.98;9.13;;;;;;;11.44;83.94;99227.59;8283460;28;20038;-60
2023/04/24 02:56:25;;;;;;;15.02;9.05;;;;;;;11.40;83.58;99233.53;8257464;28;20046;-60
2023/04/24 03:00:26;;;;;;;13.68;8.80;;;;;;;11.42;83.60;99226.97;8271723;28;20042;-60
2023/04/24 03:04:26;;;;;;;13.90;9.65;;;;;;;11.21;83.79;99228.56;8290324;28;20048;-60
2023/04/24 03:08:26;;;;;;;16.77;9.70;;;;;;;11.20;84.09;99238.53;8290338;28;20041;-60
2023/04/24 03:12:27;;;;;;;15.63;9.38;;;;;;;11.23;83.68;99243.59;8292509;28;20150;-60
2023/04/24 03:16:27;;;;;;;13.95;9.43;;;;;;;11.26;83.74;99245.94;8309133;28;20571;-60
2023/04/24 03:20:29;;;;;;;19.90;9.15;;;;;;;11.20;83.99;99238.53;8289884;28;20053;-60
2023/04/24 03:24:31;;;;;;;12.75;8.93;;;;;;;11.17;83.52;99244.34;8290072;28;20033;-60
2023/04/24 03:28:32;;;;;;;17.77;9.07;;;;;;;11.09;83.79;99241.66;8290514;28;20597;-60
2023/04/24 03:32:36;;;;;;;15.98;8.77;;;;;;;11.04;84.90;99249.44;8290556;28;20088;-60
2023/04/24 03:36:37;;;;;;;12.57;8.07;;;;;;;11.03;84.84;99247.75;8290224;28;20041;-60
2023/04/24 03:40:41;;;;;;;11.45;7.45;;;;;;;11.06;84.75;99252.81;8285074;28;20556;-61
2023/04/24 03:44:55;;;;;;;11.85;8.02;;;;;;;11.12;84.93;99246.72;8286798;28;20044;-62
2023/04/24 03:48:59;;;;;;;;;;;;;;;11.18;84.76;99251.41;8264050;28;20046;-62
2023/04/24 03:53:05;;;;;;;12.63;7.63;;;;;;;11.26;84.18;99245.94;8288931;28;20383;-62
2023/04/24 03:57:11;;;;;;;13.63;8.10;;;;;;;11.30;84.81;99254.56;8289836;28;20096;-63
2023/04/24 04:01:20;;;;;;;14.02;8.40;;;;;;;11.32;84.96;99252.53;8286567;28;20045;-63
2023/04/24 04:05:27;;;;;;;11.40;7.85;;;;;;;11.35;85.50;99247.59;8290017;28;20049;-61
2023/04/24 04:09:27;;;;;;;10.93;8.02;;;;;;;11.35;85.59;99255.72;8290009;28;20132;-61
2023/04/24 04:13:29;;;;;;;10.77;7.10;;;;;;;11.32;84.67;99247.13;8289467;28;20165;-61
2023/04/24 04:17:30;;;;;;;11.90;7.38;;;;;;;11.36;85.58;99252.00;8289195;28;20034;-61
2023/04/24 04:21:32;;;;;;;9.82;6.97;;;;;;;11.33;86.23;99255.06;8289513;28;20511;-61
2023/04/24 04:25:43;;;;;;;12.75;7.63;;;;;;;11.35;85.47;99253.00;8294301;28;20527;-61
2023/04/24 04:29:45;;;;;;;13.65;7.10;;;;;;;11.41;85.09;99256.91;8295167;28;20038;-62
2023/04/24 04:33:47;;;;;;;11.32;6.25;;;;;;;11.35;84.42;99253.00;8294563;28;20037;-62
2023/04/24 04:37:48;;;;;;;10.18;7.50;;;;;;;11.35;84.60;99258.44;8295218;28;20041;-61
2023/04/24 04:42:06;;;;;;;11.93;6.50;;;;;;;11.32;84.20;99257.94;8294866;28;20566;-62
2023/04/24 04:46:13;;;;;;;14.48;6.88;;;;;;;11.31;84.28;99262.50;8294179;28;20455;-61
2023/04/24 04:50:33;;;;;;;8.25;6.07;;;;;;;11.31;83.82;99259.81;8294885;28;20100;-62
2023/04/24 04:54:40;;;;;;;9.40;6.03;;;;;;;11.32;83.55;99263.38;8294227;28;20416;-62
2023/04/24 04:58:40;;;;;;;10.45;7.10;;;;;;;11.28;84.19;99260.16;8294149;28;20034;-62
2023/04/24 05:02:44;;;;;;;9.20;6.23;;;;;;;11.32;84.06;99266.88;8261881;28;20054;-62
2023/04/24 05:06:45;;;;;;;9.57;6.60;;;;;;;11.32;84.91;99269.59;8261354;28;20440;-62
2023/04/24 05:10:46;;;;;;;11.20;7.57;;;;;;;11.26;85.63;99270.28;8269652;28;20033;-62
2023/04/24 05:14:46;;;;;;;11.70;7.78;;;;;;;11.27;85.83;99272.00;8274145;28;20046;-62
2023/04/24 05:18:47;;;;;;;12.85;6.95;;;;;;;11.25;85.38;99276.75;8268915;28;20037;-62
2023/04/24 05:22:52;;;;;;;11.23;7.25;;;;;;;11.38;85.02;99295.94;8305616;28;20066;-62
2023/04/24 05:26:58;;;;;;;11.23;6.30;;;;;;;11.30;84.54;99271.66;8301663;28;20427;-62
2023/04/24 05:31:04;;;;;;;11.77;5.50;;;;;;;11.40;83.95;99293.06;8300491;28;20566;-62
2023/04/24 05:35:05;;;;;;;10.38;6.57;;;;;;;11.35;85.68;99301.72;8294881;28;20408;-62
2023/04/24 05:39:06;;;;;;;6.43;5.53;;;;;;;11.31;85.61;99311.22;8303118;28;20053;-62
2023/04/24 05:43:07;;;;;;;8.98;4.90;;;;;;;11.38;85.07;99306.78;8276683;28;20049;-63
2023/04/24 05:47:07;;;;;;;6.22;4.88;;;;;;;11.40;85.00;99312.00;8280265;28;20132;-63
2023/04/24 05:51:09;;;;;;;5.63;3.67;;;;;;;11.41;84.99;99308.31;8289554;28;20042;-63
2023/04/24 05:55:09;;;;;;;7.30;3.90;;;;;;;11.43;85.78;99304.41;8277684;28;20077;-63
2023/04/24 05:59:12;;;;;;;4.03;2.28;;;;;;;11.40;84.93;99304.75;8287697;28;20068;-63
2023/04/24 06:03:12;;;;;;;5.03;2.75;;;;;;;11.29;86.54;99313.25;8292633;28;20045;-63
2023/04/24 06:07:13;;;;;;;4.88;2.50;;;;;;;11.25;87.72;99306.50;8292203;28;20459;-63
2023/04/24 06:11:16;;;;;;;4.00;1.70;;;;;;;11.22;86.03;99304.13;8292289;28;20096;-62
2023/04/24 06:15:17;;;;;;;4.57;1.67;;;;;;;11.20;88.66;99308.88;8292059;28;20042;-63
2023/04/24 06:19:26;;;;;;;3.58;2.35;;;;;;;11.00;91.23;99314.84;8291951;28;20045;-63
2023/04/24 06:23:26;;;;;;;2.63;1.83;;;;;;;10.80;91.88;99330.59;8291895;28;20042;-64
2023/04/24 06:27:28;;;;;;;3.85;2.45;;;;;;;10.75;94.79;99341.09;8291257;28;20072;-63
2023/04/24 06:31:28;;;;;;;4.53;2.80;;;;;;;10.66;98.15;99339.41;8293977;28;20050;-63
2023/04/24 06:35:29;;;;;;;2.75;2.40;;;;;;;10.59;98.43;99338.41;8291292;28;20048;-63
2023/04/24 06:39:29;;;;;;;5.72;2.92;;;;;;;10.53;99.63;99333.69;8289342;28;20061;-63
2023/04/24 06:43:29;;;;;;;3.53;2.35;;;;;;;10.53;100.00;99336.38;8289453;28;20041;-63
2023/04/24 06:47:30;;;;;;;5.50;2.50;;;;;;;10.53;100.00;99333.69;8290665;28;20034;-63
2023/04/24 06:51:32;;;;;;;4.30;2.67;;;;;;;10.57;100.00;99347.69;8291241;28;20069;-63
2023/04/24 06:55:33;;;;;;;3.45;3.05;;;;;;;10.48;100.00;99349.53;8290624;28;20042;-63
2023/04/24 06:59:33;;;;;;;4.40;3.67;;;;;;;10.45;100.00;99355.28;8285923;28;20052;-63
2023/04/24 07:03:34;;;;;;;5.53;3.33;;;;;;;10.43;100.00;99349.19;8290516;28;20084;-58
2023/04/24 07:07:37;;;;;;;3.50;3.15;;;;;;;10.36;100.00;99360.84;8296660;28;20045;-58
2023/04/24 07:11:39;;;;;;;5.40;3.67;;;;;;;10.35;100.00;99365.41;8290802;28;20045;-58
2023/04/24 07:15:40;;;;;;;5.05;4.00;;;;;;;10.24;100.00;99373.84;8304192;28;20120;-59
2023/04/24 07:19:41;;;;;;;14.60;4.60;;;;;;;10.13;100.00;99384.13;8305090;28;20057;-58
2023/04/24 07:23:42;;;;;;;7.57;4.75;;;;;;;10.03;100.00;99386.91;8291131;28;20492;-58
2023/04/24 07:27:42;;;;;;;3.58;2.60;;;;;;;9.78;100.00;99394.09;8294275;28;20060;-59
2023/04/24 07:31:43;;;;;;;3.65;2.13;;;;;;;9.72;100.00;99399.28;8287420;28;20042;-59
2023/04/24 07:35:44;;;;;;;3.33;1.90;;;;;;;9.69;100.00;99405.88;8286488;28;20042;-59
2023/04/24 07:39:44;;;;;;;2.20;1.88;;;;;;;9.57;100.00;99412.56;8287760;28;20168;-59
2023/04/24 07:43:45;;;;;;;3.45;1.80;;;;;;;9.52;100.00;99425.69;8287446;28;20129;-59
2023/04/24 07:47:46;;;;;;;2.20;1.77;;;;;;;9.46;100.00;99429.00;8286893;28;20133;-59
2023/04/24 07:51:46;;;;;;;2.42;2.22;;;;;;;9.46;100.00;99430.88;8289309;28;20046;-63
2023/04/24 07:55:47;;;;;;;3.00;2.63;;;;;;;9.48;100.00;99442.34;8285502;28;20060;-63
2023/04/24 07:59:47;;;;;;;5.90;3.55;;;;;;;9.52;100.00;99454.53;8291928;28;20057;-62
2023/04/24 08:03:48;;;;;;;3.63;3.25;;;;;;;9.44;100.00;99466.09;8289705;28;20035;-63
2023/04/24 08:07:50;;;;;;;8.43;4.40;;;;;;;9.43;100.00;99472.50;8291309;28;20108;-63
2023/04/24 08:11:50;;;;;;;4.05;2.78;;;;;;;9.29;100.00;99486.56;8292457;28;20048;-62
2023/04/24 08:15:51;;;;;;;5.88;2.65;;;;;;;9.25;100.00;99500.53;8292198;28;20038;-63
2023/04/24 08:19:53;;;;;;;3.63;2.10;;;;;;;9.09;100.00;99505.78;8290493;28;20153;-62
2023/04/24 08:23:53;;;;;;;2.85;2.55;;;;;;;9.08;100.00;99514.88;8291112;28;20042;-63
2023/04/24 08:27:54;;;;;;;3.92;2.63;;;;;;;9.02;100.00;99518.19;8292451;28;20101;-62
2023/04/24 08:31:54;;;;;;;6.10;3.28;;;;;;;9.00;100.00;99525.59;8291629;28;20062;-58
2023/04/24 08:35:55;;;;;;;5.15;3.00;;;;;;;9.04;100.00;99535.06;8291623;28;20050;-58
2023/04/24 08:39:55;;;;;;;5.53;3.53;;;;;;;9.08;100.00;99544.53;8288037;28;20038;-57
2023/04/24 08:43:58;;;;;;;5.30;3.90;;;;;;;9.07;100.00;99545.53;8289297;28;20258;-58
2023/04/24 08:47:59;;;;;;;6.97;4.32;;;;;;;9.16;100.00;99553.56;8288334;28;20119;-58
2023/04/24 08:52:01;;;;;;;5.68;4.53;;;;;;;9.16;100.00;99550.84;8288388;28;20523;-58
2023/04/24 08:56:02;;;;;;;6.18;4.38;;;;;;;9.28;100.00;99562.25;8296610;28;20042;-58
2023/04/24 09:00:04;;;;;;;6.93;5.15;;;;;;;9.37;100.00;99566.69;8292064;28;20065;-58
2023/04/24 09:04:07;;;;;;;8.85;5.13;;;;;;;9.39;100.00;99575.47;8291790;28;20109;-58
2023/04/24 09:08:08;;;;;;;10.95;5.35;;;;;;;9.44;100.00;99581.25;8291201;28;20069;-58
2023/04/24 09:12:09;;;;;;;8.40;5.15;;;;;;;9.59;100.00;99594.03;8291445;28;20041;-61
2023/04/24 09:16:10;;;;;;;11.15;5.80;;;;;;;9.63;100.00;99600.78;8256589;28;20100;-61
2023/04/24 09:20:11;;;;;;;10.65;5.55;;;;;;;9.62;100.00;99603.66;8315677;28;20041;-61
2023/04/24 09:24:17;;;;;;;10.45;5.70;;;;;;;9.76;100.00;99616.59;8290855;28;20038;-61
2023/04/24 09:28:18;;;;;;;10.25;5.63;;;;;;;9.86;100.00;99609.25;8290995;28;20068;-61
2023/04/24 09:32:21;;;;;;;10.98;6.38;;;;;;;9.95;100.00;99616.38;8290590;28;20042;-61
2023/04/24 09:36:33;;;;;;;15.15;6.25;;;;;;;9.96;100.00;99628.88;8290814;28;20448;-61
2023/04/24 09:40:34;;;;;;;12.65;5.88;;;;;;;9.98;100.00;99633.09;8290635;28;20408;-61
2023/04/24 09:44:35;;;;;;;8.50;5.40;;;;;;;9.98;100.00;99643.91;8290881;28;20412;-61
2023/04/24 09:48:37;;;;;;;10.70;5.40;;;;;;;10.13;100.00;99652.31;8290695;28;20060;-62
2023/04/24 09:52:43;;;;;;;9.13;5.00;;;;;;;10.16;100.00;99654.72;8289762;28;20124;-61
2023/04/24 09:56:46;;;;;;;9.20;5.53;;;;;;;10.23;100.00;99663.84;8282285;28;20048;-61
2023/04/24 10:00:46;;;;;;;10.10;5.40;;;;;;;10.50;100.00;99665.53;8289965;28;20501;-61
2023/04/24 10:04:56;;;;;;;6.35;5.20;;;;;;;10.90;100.00;99674.69;8290071;28;20510;-61
2023/04/24 10:08:58;;;;;;;10.88;5.65;;;;;;;11.10;100.00;99676.09;8289391;28;20527;-61
2023/04/24 10:13:00;;;;;;;9.40;5.13;;;;;;;11.23;100.00;99678.34;8289553;28;20083;-61
2023/04/24 10:17:00;;;;;;;9.57;5.22;;;;;;;11.36;100.00;99684.09;8289357;28;20054;-61
2023/04/24 10:21:02;;;;;;;16.63;5.25;;;;;;;11.34;100.00;99680.72;8276344;28;20045;-61
2023/04/24 10:25:05;;;;;;;15.63;5.38;;;;;;;11.39;100.00;99694.59;8290030;28;20566;-61
2023/04/24 10:29:09;;;;;;;11.77;4.95;;;;;;;11.48;100.00;99686.34;8289505;28;20405;-61
2023/04/24 10:33:12;;;;;;;12.52;4.35;;;;;;;11.67;97.72;99696.88;8288564;28;20069;-61
2023/04/24 10:37:13;;;;;;;14.85;5.97;;;;;;;11.82;97.76;99699.75;8288576;28;20042;-61
2023/04/24 10:41:16;;;;;;;15.50;5.65;;;;;;;11.82;97.50;99700.63;8289089;28;20400;-61
2023/04/24 10:45:18;;;;;;;15.75;5.85;;;;;;;11.70;97.10;99695.69;8288691;28;20068;-61
2023/04/24 10:49:28;;;;;;;14.18;6.00;;;;;;;11.69;99.07;99711.06;8281189;28;20526;-61
2023/04/24 10:53:30;;;;;;;16.23;6.25;;;;;;;11.48;99.09;99713.41;8298168;28;20042;-61
2023/04/24 10:57:30;;;;;;;15.88;6.28;;;;;;;11.29;100.00;99723.66;8294613;28;20047;-61
2023/04/24 11:01:32;;;;;;;12.82;7.47;;;;;;;11.02;100.00;99735.56;8297924;28;20092;-61
2023/04/24 11:05:55;;;;;;;12.60;6.65;;;;;;;10.82;100.00;99735.97;8260214;28;20413;-61
2023/04/24 11:10:00;;;;;;;10.90;6.40;;;;;;;10.79;100.00;99753.34;8310882;28;20048;-61
2023/04/24 11:14:04;;;;;;;12.52;5.93;;;;;;;10.90;100.00;99761.22;8273388;28;20042;-61
2023/04/24 11:18:04;;;;;;;14.30;7.00;;;;;;;11.37;100.00;99754.28;8282188;28;20038;-61
2023/04/24 11:22:14;;;;;;;13.40;5.65;;;;;;;11.45;100.00;99757.03;8289208;28;20049;-61
2023/04/24 11:26:24;;;;;;;10.88;5.97;;;;;;;11.51;100.00;99756.38;8288519;28;20038;-61
2023/04/24 11:30:29;;;;;;;9.45;5.07;;;;;;;11.86;100.00;99761.56;8288615;28;20111;-60
2023/04/24 11:34:31;;;;;;;11.57;5.25;;;;;;;12.68;97.80;99763.22;8293693;28;20068;-61
2023/04/24 11:38:32;;;;;;;10.07;5.18;;;;;;;13.39;90.84;99753.19;8296134;28;20038;-61
2023/04/24 11:42:35;;;;;;;15.80;5.40;;;;;;;14.93;88.41;99751.81;8290601;28;20087;-61
2023/04/24 11:46:37;;;;;;;12.18;5.25;;;;;;;16.35;80.99;99753.75;8292713;28;20418;-61
2023/04/24 11:50:39;;;;;;;15.80;5.80;;;;;;;16.08;81.47;99746.38;8285874;28;20554;-61
2023/04/24 11:54:49;;;;;;;13.27;5.78;;;;;;;14.48;81.72;99760.94;8294237;28;20393;-61
2023/04/24 11:58:53;;;;;;;14.57;6.43;;;;;;;13.51;86.82;99757.22;8293093;28;20042;-62
2023/04/24 12:03:06;;;;;;;14.35;6.82;;;;;;;12.96;88.36;99765.34;8292553;28;20061;-61
2023/04/24 12:07:08;;;;;;;16.67;7.35;;;;;;;12.50;89.87;99770.72;8290759;28;20132;-61
2023/04/24 12:11:08;;;;;;;17.08;8.00;;;;;;;12.31;92.35;99782.75;8289839;28;20065;-61
2023/04/24 12:15:09;;;;;;;17.45;8.30;;;;;;;12.31;98.27;99787.31;8288727;28;20069;-61
2023/04/24 12:19:10;;;;;;;15.82;7.20;;;;;;;13.42;95.23;99796.28;8290032;28;20450;-62
2023/04/24 12:23:10;;;;;;;21.08;6.70;;;;;;;14.02;90.43;99799.16;8295683;28;20111;-62
2023/04/24 12:27:20;;;;;;;20.15;6.82;;;;;;;14.53;83.86;99798.47;8301608;28;20099;-61
2023/04/24 12:31:21;;;;;;;10.18;5.10;;;;;;;14.73;78.26;99799.66;8286540;28;20045;-61
2023/04/24 12:35:23;;;;;;;12.85;4.70;;;;;;;14.91;77.00;99808.31;8296753;28;20989;-61
2023/04/24 12:39:26;;;;;;;13.40;4.60;;;;;;;15.20;76.10;99805.59;8308152;28;20041;-61
2023/04/24 12:43:26;;;;;;;10.80;5.00;;;;;;;14.99;75.52;99811.78;8315658;28;20037;-61
2023/04/24 12:47:28;;;;;;;15.27;6.15;;;;;;;14.82;77.21;99807.53;8323471;28;20048;-61
2023/04/24 12:51:28;;;;;;;12.48;4.85;;;;;;;14.50;75.82;99805.13;8292157;28;20121;-61
2023/04/24 12:55:29;;;;;;;12.70;6.30;;;;;;;14.20;75.87;99814.16;8291273;28;20104;-61
2023/04/24 12:59:29;;;;;;;16.20;6.10;;;;;;;14.15;77.47;99816.56;8290732;28;20084;-61
2023/04/24 13:03:29;;;;;;;15.93;6.20;;;;;;;13.80;77.16;99828.00;8291862;28;20125;-61
2023/04/24 13:07:30;;;;;;;14.35;6.78;;;;;;;13.69;77.87;99833.81;8291627;28;20236;-61
2023/04/24 13:11:30;;;;;;;13.10;6.90;;;;;;;13.67;78.91;99827.72;8291553;28;20113;-61
2023/04/24 13:15:31;;;;;;;16.38;7.05;;;;;;;14.45;78.97;99821.13;8288988;28;20100;-62
2023/04/24 13:19:36;;;;;;;12.98;6.15;;;;;;;14.31;75.85;99838.25;8290560;28;20083;-61
2023/04/24 13:23:37;;;;;;;13.80;6.20;;;;;;;14.01;75.30;99825.50;8290980;28;20033;-62
2023/04/24 13:27:39;;;;;;;12.98;6.95;;;;;;;13.93;77.55;99828.25;8290186;28;20048;-61
2023/04/24 13:31:39;;;;;;;12.60;5.85;;;;;;;14.00;76.42;99823.78;8290333;28;20034;-61
2023/04/24 13:35:40;;;;;;;15.20;7.13;;;;;;;14.07;77.39;99824.78;8290120;28;20124;-61
2023/04/24 13:39:41;;;;;;;17.98;6.95;;;;;;;13.92;75.34;99826.56;8322153;28;20511;-61
2023/04/24 13:43:42;;;;;;;16.15;6.72;;;;;;;13.64;76.63;99836.22;8301833;28;20044;-62
2023/04/24 13:47:43;;;;;;;13.80;6.38;;;;;;;13.51;76.60;99835.97;8302172;28;20041;-58
2023/04/24 13:51:44;;;;;;;17.48;6.43;;;;;;;13.71;75.15;99834.50;8294679;28;20087;-58
2023/04/24 13:55:44;;;;;;;10.45;5.80;;;;;;;13.71;73.07;99835.34;8287356;28;20394;-58
2023/04/24 13:59:45;;;;;;;18.13;5.97;;;;;;;13.94;73.12;99834.56;8262108;28;20187;-59
2023/04/24 14:03:45;;;;;;;13.85;5.22;;;;;;;14.59;71.00;99836.66;8289670;28;20511;-59
2023/04/24 14:07:46;;;;;;;16.83;6.57;;;;;;;14.32;71.21;99837.22;8289454;28;20536;-59
2023/04/24 14:11:46;;;;;;;9.57;5.70;;;;;;;14.01;70.86;99830.94;8290113;28;20068;-59
2023/04/24 14:15:47;;;;;;;7.78;4.90;;;;;;;13.99;70.89;99832.97;8319663;28;20080;-58
2023/04/24 14:19:47;;;;;;;16.17;5.70;;;;;;;14.34;70.99;99821.56;8285813;28;20511;-59
2023/04/24 14:23:48;;;;;;;11.20;5.60;;;;;;;14.63;72.46;99826.25;8290589;28;20041;-59
2023/04/24 14:27:48;;;;;;;14.35;5.63;;;;;;;14.44;72.18;99822.16;8273626;28;20038;-59
2023/04/24 14:31:49;;;;;;;13.43;5.60;;;;;;;14.44;73.42;99829.47;8290692;28;20145;-59
2023/04/24 14:35:49;;;;;;;10.75;5.53;;;;;;;14.65;70.87;99830.50;8287637;28;20042;-63
2023/04/24 14:39:50;;;;;;;9.90;5.53;;;;;;;14.54;73.37;99817.31;8296187;28;20259;-63
2023/04/24 14:43:50;;;;;;;8.77;5.18;;;;;;;14.59;72.52;99825.78;8294754;28;20048;-63
2023/04/24 14:47:50;;;;;;;12.13;5.45;;;;;;;14.52;71.55;99830.25;8298535;28;20050;-63
2023/04/24 14:51:51;;;;;;;12.95;6.13;;;;;;;14.44;71.60;99826.75;8297979;28;20044;-62
2023/04/24 14:55:52;;;;;;;7.78;5.40;;;;;;;14.60;71.80;99826.59;8294637;28;20479;-58
2023/04/24 14:59:52;;;;;;;13.75;8.25;;;;;;;14.80;69.69;99839.53;8290256;28;20049;-58
2023/04/24 15:03:53;;;;;;;25.48;10.73;;;;;;;14.61;66.47;99829.16;8285280;28;20041;-58
2023/04/24 15:07:53;;;;;;;21.85;10.05;;;;;;;14.45;67.88;99839.34;8283780;28;20026;-58
2023/04/24 15:11:54;;;;;;;13.88;5.80;;;;;;;14.44;70.50;99833.03;8281496;28;20046;-58
2023/04/24 15:15:55;;;;;;;12.13;7.75;;;;;;;14.45;71.16;99839.34;8284589;28;20160;-58
2023/04/24 15:19:56;;;;;;;13.65;7.70;;;;;;;14.45;71.43;99847.50;8286055;28;20358;-58
2023/04/24 15:23:57;;;;;;;10.07;7.00;;;;;;;14.69;70.34;99842.69;8285735;28;20456;-58
2023/04/24 15:27:58;;;;;;;9.52;5.45;;;;;;;14.67;69.73;99843.91;8285153;28;20125;-58
2023/04/24 15:31:59;;;;;;;8.60;5.32;;;;;;;14.56;70.77;99844.34;8285845;28;20511;-58
2023/04/24 15:35:59;;;;;;;10.05;5.35;;;;;;;14.65;68.23;99835.94;8284856;28;20475;-58
2023/04/24 15:40:00;;;;;;;10.90;5.80;;;;;;;14.26;69.84;99851.53;8284936;28;20042;-62
2023/04/24 15:44:00;;;;;;;12.68;7.93;;;;;;;14.04;69.18;99855.03;8286088;28;20513;-62
2023/04/24 15:48:01;;;;;;;12.57;7.68;;;;;;;14.08;70.33;99853.66;8284498;28;20129;-62
2023/04/24 15:52:02;;;;;;;13.43;7.63;;;;;;;14.09;70.21;99852.63;8285788;28;20532;-62
2023/04/24 15:56:02;;;;;;;10.82;5.50;;;;;;;13.92;69.88;99859.19;8285158;28;20041;-62
2023/04/24 16:00:08;;;;;;;12.63;5.38;;;;;;;13.79;71.82;99856.19;8284086;28;20040;-62
2023/04/24 16:04:14;;;;;;;14.15;6.47;;;;;;;13.71;71.90;99857.09;8284345;28;22677;-62
2023/04/24 16:08:15;;;;;;;9.70;4.82;;;;;;;13.66;71.28;99858.63;8284448;28;20060;-62
2023/04/24 16:12:16;;;;;;;11.05;5.63;;;;;;;13.72;71.73;99860.63;8283749;28;20069;-62
2023/04/24 16:16:16;;;;;;;11.40;6.85;;;;;;;13.70;72.08;99854.53;8283815;28;20062;-62
2023/04/24 16:20:17;;;;;;;12.75;5.22;;;;;;;13.79;70.57;99864.34;8280851;28;20045;-62
2023/04/24 16:24:18;;;;;;;9.77;5.05;;;;;;;13.91;71.29;99852.06;8283737;28;20036;-62
2023/04/24 16:28:18;;;;;;;9.52;4.38;;;;;;;14.06;72.82;99850.25;8281441;28;20109;-62
2023/04/24 16:32:19;;;;;;;11.15;4.25;;;;;;;14.19;71.26;99855.13;8312927;28;20045;-62
2023/04/24 16:36:20;;;;;;;8.45;4.18;;;;;;;14.06;69.83;99855.69;8283949;28;20073;-58
2023/04/24 16:40:21;;;;;;;7.97;4.13;;;;;;;14.06;72.06;99860.31;8286860;28;20042;-59
2023/04/24 16:44:21;;;;;;;9.30;4.20;;;;;;;13.99;71.22;99864.75;8277506;28;20038;-58
2023/04/24 16:48:22;;;;;;;7.10;4.55;;;;;;;13.96;73.23;99865.94;8278781;28;20088;-58
2023/04/24 16:52:22;;;;;;;10.20;4.53;;;;;;;13.95;71.44;99880.56;8284391;28;21590;-59
2023/04/24 16:56:23;;;;;;;12.77;4.45;;;;;;;13.86;72.68;99876.19;8294200;28;20420;-59
2023/04/24 17:00:23;;;;;;;11.02;4.25;;;;;;;13.78;73.27;99868.06;8273586;28;20038;-59
2023/04/24 17:04:24;;;;;;;6.03;3.95;;;;;;;13.68;71.35;99872.88;8265671;28;20504;-59
2023/04/24 17:08:24;;;;;;;9.90;3.90;;;;;;;13.54;71.76;99876.31;8264989;28;20112;-62
2023/04/24 17:12:25;;;;;;;8.75;4.20;;;;;;;13.44;72.48;99889.25;8310254;28;20038;-62
2023/04/24 17:16:26;;;;;;;6.20;3.17;;;;;;;13.33;72.23;99884.22;8279639;28;20416;-62
2023/04/24 17:20:27;;;;;;;7.30;3.88;;;;;;;13.33;72.63;99879.59;8288255;28;20034;-62
2023/04/24 17:24:27;;;;;;;8.90;4.32;;;;;;;13.39;71.64;99881.63;8287476;28;20034;-62
2023/04/24 17:28:29;;;;;;;7.32;3.75;;;;;;;13.26;73.29;99886.75;8294156;28;20103;-62
2023/04/24 17:32:30;;;;;;;9.90;4.35;;;;;;;13.17;72.58;99895.06;8289489;28;20033;-62
2023/04/24 17:36:31;;;;;;;11.20;3.45;;;;;;;13.04;73.32;99894.75;8287668;28;20060;-62
2023/04/24 17:40:31;;;;;;;8.15;3.65;;;;;;;12.90;74.41;99896.28;8288689;28;20504;-62
2023/04/24 17:44:32;;;;;;;4.85;3.30;;;;;;;13.01;72.87;99892.41;8287993;28;20038;-62
2023/04/24 17:48:34;;;;;;;8.68;3.00;;;;;;;13.10;72.90;99899.50;8287263;28;20497;-62
2023/04/24 17:52:34;;;;;;;5.88;2.90;;;;;;;13.07;71.09;99895.28;8285905;28;20105;-62
2023/04/24 17:56:35;;;;;;;8.90;3.55;;;;;;;13.01;72.73;99900.53;8286349;28;20527;-62
2023/04/24 18:00:35;;;;;;;6.40;2.88;;;;;;;12.87;74.32;99914.78;8284549;28;20390;-62
2023/04/24 18:04:37;;;;;;;5.28;2.38;;;;;;;12.72;73.21;99900.19;8283240;28;20041;-62
2023/04/24 18:08:38;;;;;;;5.85;2.38;;;;;;;12.62;72.68;99904.91;8282964;28;20038;-62
2023/04/24 18:12:38;;;;;;;6.80;2.40;;;;;;;12.49;74.38;99913.56;8286081;28;20064;-62
2023/04/24 18:16:39;;;;;;;7.65;2.47;;;;;;;12.28;75.14;99910.47;8282269;28;20381;-62
2023/04/24 18:20:39;;;;;;;8.50;2.60;;;;;;;12.16;75.60;99924.47;8278931;28;20123;-62
2023/04/24 18:24:40;;;;;;;6.68;2.45;;;;;;;11.99;76.96;99918.19;8274113;28;20346;-63
2023/04/24 18:28:40;;;;;;;5.65;2.70;;;;;;;11.93;77.53;99931.53;8287516;28;20340;-63
2023/04/24 18:32:41;;;;;;;6.65;3.03;;;;;;;11.80;77.83;99946.38;8286800;28;20034;-63
2023/04/24 18:36:41;;;;;;;10.77;2.63;;;;;;;11.76;78.08;99954.97;8283606;28;20104;-62
2023/04/24 18:40:42;;;;;;;6.07;2.92;;;;;;;11.64;78.38;99950.84;8284869;28;20524;-62
2023/04/24 18:44:42;;;;;;;5.25;2.97;;;;;;;11.59;78.51;99959.44;8286580;28;20034;-62
2023/04/24 18:48:43;;;;;;;6.82;3.10;;;;;;;11.47;79.27;99963.41;8286372;28;20044;-63
2023/04/24 18:52:44;;;;;;;8.23;3.10;;;;;;;11.44;79.49;99961.03;8285466;28;20040;-63